Time;durP1;ratioP1;P1;durP2;ratioP2;P2;SDS_P1;SDS_P2;PMS_P1;PMS_P2;Temp;Humidity;BMP_temperature;BMP_pressure;BME280_temperature;BME280_humidity;BME280_pressure;Samples;Min_cycle;Max_cycle;Signal;HPM_P1;HPM_P2
2022/12/30 00:00:31;;;;;;;12.35;1.70;;;;;;;3.87;100.00;100917.78;6179592;23;20361;-87
2022/12/30 00:02:57;;;;;;;18.50;2.57;;;;;;;3.85;100.00;100919.81;6180690;23;20032;-87
2022/12/30 00:05:22;;;;;;;11.67;1.70;;;;;;;3.82;100.00;100922.09;6182240;23;20036;-87
2022/12/30 00:07:47;;;;;;;16.17;1.70;;;;;;;3.79;100.00;100931.25;6181614;23;20422;-87
2022/12/30 00:10:13;;;;;;;13.50;1.43;;;;;;;3.78;100.00;100926.97;6181366;23;20001;-87
2022/12/30 00:34:57;;;;;;;22.98;2.13;;;;;;;3.58;100.00;100946.41;6183226;23;20016;-87
2022/12/30 00:37:22;;;;;;;13.63;1.60;;;;;;;3.56;100.00;100950.28;6182928;23;20012;-87
2022/12/30 00:39:48;;;;;;;16.77;1.93;;;;;;;3.49;100.00;100951.13;6182758;23;20001;-87
2022/12/30 00:44:57;;;;;;;13.00;1.70;;;;;;;3.38;100.00;100938.50;6181895;23;20103;-87
2022/12/30 00:47:22;;;;;;;20.37;2.67;;;;;;;3.35;100.00;100943.41;6181694;23;20032;-87
2022/12/30 00:57:59;;;;;;;12.00;2.03;;;;;;;3.38;100.00;100930.56;6183170;23;20131;-88
2022/12/30 01:00:24;;;;;;;11.90;1.87;;;;;;;3.34;100.00;100937.28;6181925;23;20402;-87
2022/12/30 01:02:50;;;;;;;16.97;2.00;;;;;;;3.30;100.00;100944.00;6182566;23;20020;-87
2022/12/30 01:05:15;;;;;;;9.77;1.30;;;;;;;3.28;100.00;100940.78;6183576;23;20009;-87
2022/12/30 01:07:40;;;;;;;13.13;1.80;;;;;;;3.30;100.00;100946.66;6182877;23;20009;-87
2022/12/30 01:10:06;;;;;;;9.63;1.50;;;;;;;3.31;100.00;100948.28;6182311;23;20478;-87
2022/12/30 01:12:31;;;;;;;12.60;1.60;;;;;;;3.27;100.00;100947.09;6181808;23;20001;-87
2022/12/30 01:14:58;;;;;;;16.70;1.87;;;;;;;3.25;100.00;100951.78;6182376;23;20100;-86
2022/12/30 01:17:27;;;;;;;15.35;2.30;;;;;;;3.26;100.00;100948.91;6182937;23;20085;-87
2022/12/30 01:19:53;;;;;;;14.48;1.80;;;;;;;3.30;100.00;100955.44;6182706;23;20075;-87
2022/12/30 01:22:18;;;;;;;20.47;2.37;;;;;;;3.33;100.00;100946.25;6182465;23;20021;-87
2022/12/30 01:24:43;;;;;;;10.10;1.70;;;;;;;3.33;100.00;100948.91;6182294;23;20013;-87
2022/12/30 01:27:09;;;;;;;11.30;1.77;;;;;;;3.31;100.00;100954.41;6182907;23;20024;-87
2022/12/30 01:29:37;;;;;;;15.18;2.40;;;;;;;3.28;100.00;100944.22;6181738;23;20008;-87
2022/12/30 01:32:07;;;;;;;16.85;1.95;;;;;;;3.30;100.00;100957.25;6182791;23;20008;-86
2022/12/30 01:34:33;;;;;;;19.17;1.80;;;;;;;3.30;100.00;100960.75;6182706;23;20009;-87
2022/12/30 01:36:58;;;;;;;10.88;1.75;;;;;;;3.30;100.00;100967.84;6182134;23;20315;-86
2022/12/30 01:39:24;;;;;;;17.27;2.47;;;;;;;3.23;100.00;100962.56;6182443;23;20081;-86
2022/12/30 01:41:49;;;;;;;16.33;2.10;;;;;;;3.20;100.00;100972.78;6181835;23;20083;-86
2022/12/30 01:44:48;;;;;;;22.23;2.10;;;;;;;3.16;100.00;100980.31;6182560;23;20440;-86
2022/12/30 01:47:21;;;;;;;15.83;1.90;;;;;;;3.22;100.00;100981.31;6181743;23;20272;-86
2022/12/30 01:49:50;;;;;;;20.25;2.08;;;;;;;3.21;100.00;100985.00;6181537;23;20373;-86
2022/12/30 01:52:19;;;;;;;13.45;2.40;;;;;;;3.18;100.00;100972.97;6156108;23;20013;-86
2022/12/30 01:54:45;;;;;;;14.75;1.58;;;;;;;3.18;100.00;100981.72;6182390;23;20025;-85
2022/12/30 01:57:11;;;;;;;22.20;1.65;;;;;;;3.21;100.00;100988.44;6182455;23;20005;-85
2022/12/30 01:59:38;;;;;;;16.67;2.23;;;;;;;3.21;100.00;100990.28;6181377;23;20059;-86
2022/12/30 02:02:04;;;;;;;16.52;1.83;;;;;;;3.20;100.00;100984.16;6182443;23;20009;-86
2022/12/30 02:04:29;;;;;;;13.67;1.60;;;;;;;3.25;100.00;100986.22;6182428;23;20104;-87
2022/12/30 02:07:09;;;;;;;19.55;1.83;;;;;;;3.25;100.00;100992.31;6181434;23;20008;-86
2022/12/30 02:09:35;;;;;;;14.70;1.98;;;;;;;3.28;100.00;100993.75;6182238;23;20123;-86
2022/12/30 02:12:02;;;;;;;18.90;1.95;;;;;;;3.23;100.00;100988.25;6182787;23;20009;-86
2022/12/30 02:14:31;;;;;;;14.27;1.50;;;;;;;3.21;100.00;100972.56;6181982;23;20059;-86
2022/12/30 02:17:12;;;;;;;13.37;1.53;;;;;;;3.22;100.00;100983.97;6182211;23;20063;-86
2022/12/30 02:20:13;;;;;;;15.60;2.40;;;;;;;3.20;100.00;100967.47;6181684;23;20241;-85
2022/12/30 02:23:08;;;;;;;22.70;2.30;;;;;;;3.28;100.00;100964.63;6181766;23;20067;-86
2022/12/30 02:25:39;;;;;;;16.67;1.85;;;;;;;3.21;100.00;100966.44;6157711;23;20012;-86
2022/12/30 02:28:22;;;;;;;9.10;1.17;;;;;;;3.15;100.00;100966.25;6182299;23;20009;-86
2022/12/30 02:31:17;;;;;;;18.40;1.60;;;;;;;3.06;100.00;100975.44;6181580;23;20314;-86
2022/12/30 02:33:54;;;;;;;15.98;1.90;;;;;;;3.10;100.00;100970.53;6181475;23;20016;-85
2022/12/30 02:36:36;;;;;;;12.53;2.10;;;;;;;3.07;100.00;100958.53;6181289;23;20005;-86
2022/12/30 02:39:25;;;;;;;12.03;1.40;;;;;;;3.10;100.00;100963.41;6181832;23;20248;-85
2022/12/30 02:44:55;;;;;;;13.07;1.65;;;;;;;3.02;100.00;100951.16;6182073;23;20020;-86
2022/12/30 02:47:40;;;;;;;17.52;1.77;;;;;;;3.01;100.00;100944.25;6182402;23;20005;-86
2022/12/30 02:53:00;;;;;;;28.02;2.83;;;;;;;2.88;100.00;100937.16;6181878;23;20079;-86
2022/12/30 02:55:25;;;;;;;14.13;1.63;;;;;;;2.87;100.00;100935.50;6181476;23;20005;-86
2022/12/30 02:57:51;;;;;;;15.40;1.73;;;;;;;2.82;100.00;100934.50;6181886;23;20092;-87
2022/12/30 03:06:18;;;;;;;20.42;1.33;;;;;;;2.84;100.00;100914.75;6181122;23;20019;-86
2022/12/30 03:09:03;;;;;;;19.45;2.35;;;;;;;2.82;100.00;100924.72;6180598;23;20009;-86
2022/12/30 03:11:37;;;;;;;18.57;1.90;;;;;;;2.80;100.00;100921.44;6180941;23;20060;-86
2022/12/30 03:14:07;;;;;;;16.35;1.60;;;;;;;2.77;100.00;100908.63;6182577;23;20402;-86
2022/12/30 03:16:48;;;;;;;17.67;1.70;;;;;;;2.80;100.00;100913.50;6181797;23;20072;-86
2022/12/30 03:19:21;;;;;;;12.32;1.85;;;;;;;2.73;100.00;100924.09;6181585;23;20052;-87
2022/12/30 03:21:50;;;;;;;15.32;1.92;;;;;;;2.71;100.00;100920.03;6180341;23;20005;-86
2022/12/30 03:27:09;;;;;;;25.63;3.00;;;;;;;2.73;100.00;100915.38;6181796;23;20083;-86
2022/12/30 03:29:43;;;;;;;16.17;2.00;;;;;;;2.79;100.00;100919.03;6181743;23;20232;-87
2022/12/30 03:32:14;;;;;;;15.20;2.08;;;;;;;2.79;100.00;100914.53;6183694;23;20012;-87
2022/12/30 03:34:40;;;;;;;14.57;1.90;;;;;;;2.82;100.00;100922.06;6182829;23;20330;-87
2022/12/30 03:37:15;;;;;;;17.50;2.22;;;;;;;2.81;100.00;100915.16;6183812;23;20088;-87
2022/12/30 03:39:46;;;;;;;19.20;2.40;;;;;;;2.79;100.00;100914.53;6184421;23;20044;-86
2022/12/30 03:42:13;;;;;;;23.13;2.53;;;;;;;2.75;100.00;100904.56;6186571;23;20390;-87
2022/12/30 03:44:42;;;;;;;16.77;2.00;;;;;;;2.79;100.00;100900.50;6186284;23;20080;-87
2022/12/30 03:47:12;;;;;;;19.75;2.47;;;;;;;2.77;100.00;100913.13;6186157;23;20005;-87
2022/12/30 03:49:40;;;;;;;24.23;3.08;;;;;;;2.72;100.00;100914.53;6184109;23;20498;-86
2022/12/30 03:52:06;;;;;;;19.65;1.98;;;;;;;2.71;100.00;100917.38;6188715;23;20008;-86
2022/12/30 03:54:31;;;;;;;16.13;1.90;;;;;;;2.74;100.00;100927.53;6184206;23;20005;-87
2022/12/30 03:56:57;;;;;;;17.97;2.70;;;;;;;2.83;100.00;100917.59;6184810;23;20039;-87
2022/12/30 03:59:22;;;;;;;22.53;2.20;;;;;;;2.87;100.00;100922.28;6184283;23;20449;-86
2022/12/30 04:01:47;;;;;;;15.25;1.58;;;;;;;2.79;100.00;100925.13;6181442;23;20063;-85
2022/12/30 04:04:12;;;;;;;23.43;1.90;;;;;;;2.73;100.00;100918.00;6187009;23;20630;-85
2022/12/30 04:06:38;;;;;;;12.57;1.87;;;;;;;2.64;100.00;100917.38;6186329;23;20097;-86
2022/12/30 04:09:03;;;;;;;19.50;2.03;;;;;;;2.65;100.00;100918.19;6185924;23;20012;-86
2022/12/30 04:11:28;;;;;;;17.13;2.00;;;;;;;2.64;100.00;100919.22;6186176;23;20001;-85
2022/12/30 04:13:54;;;;;;;27.83;2.07;;;;;;;2.61;100.00;100925.72;6195519;23;20087;-85
2022/12/30 04:16:19;;;;;;;25.60;2.00;;;;;;;2.56;100.00;100923.66;6188318;23;20369;-85
2022/12/30 04:18:44;;;;;;;14.02;2.15;;;;;;;2.56;100.00;100915.72;6183153;23;20016;-85
2022/12/30 04:21:10;;;;;;;16.60;1.87;;;;;;;2.61;100.00;100924.91;6183036;23;20009;-85
2022/12/30 04:23:35;;;;;;;18.93;1.90;;;;;;;2.54;100.00;100933.66;6183365;23;20013;-86
2022/12/30 04:26:00;;;;;;;14.90;1.60;;;;;;;2.46;100.00;100933.84;6183614;23;20032;-85
2022/12/30 04:28:26;;;;;;;12.73;2.10;;;;;;;2.51;100.00;100927.94;6183320;23;20083;-86
2022/12/30 04:30:51;;;;;;;21.83;2.07;;;;;;;2.55;100.00;100929.16;6182576;23;19997;-86
2022/12/30 04:33:16;;;;;;;21.70;2.50;;;;;;;2.58;100.00;100926.13;6182973;23;20091;-86
2022/12/30 04:35:42;;;;;;;20.23;2.60;;;;;;;2.54;100.00;100917.78;6183033;23;20233;-85
2022/12/30 04:38:07;;;;;;;19.47;2.07;;;;;;;2.50;100.00;100916.56;6183744;23;20089;-86
2022/12/30 04:40:32;;;;;;;18.67;2.10;;;;;;;2.55;100.00;100927.34;6181312;23;20027;-88
2022/12/30 04:42:58;;;;;;;22.57;3.00;;;;;;;2.52;100.00;100917.19;6183960;23;20449;-87
2022/12/30 04:45:23;;;;;;;22.20;2.80;;;;;;;2.60;100.00;100924.09;6182969;23;20001;-87
2022/12/30 04:47:48;;;;;;;15.98;2.03;;;;;;;2.63;100.00;100917.56;6181907;23;20001;-87
2022/12/30 04:50:13;;;;;;;17.97;1.97;;;;;;;2.65;100.00;100915.53;6182112;23;20009;-87
2022/12/30 04:52:39;;;;;;;20.67;2.13;;;;;;;2.56;100.00;100915.72;6182166;23;20051;-87
2022/12/30 04:55:05;;;;;;;13.57;1.70;;;;;;;2.52;100.00;100913.69;6183081;23;20005;-86
2022/12/30 04:57:30;;;;;;;18.25;2.67;;;;;;;2.46;100.00;100919.81;6182361;23;20449;-86
2022/12/30 04:59:55;;;;;;;18.10;2.60;;;;;;;2.44;100.00;100925.28;6182114;23;20032;-86
2022/12/30 05:02:21;;;;;;;17.50;2.13;;;;;;;2.41;100.00;100923.88;6155421;23;20068;-86
2022/12/30 05:04:46;;;;;;;21.43;2.30;;;;;;;2.39;100.00;100923.25;6181607;23;20046;-86
2022/12/30 05:07:11;;;;;;;17.87;2.40;;;;;;;2.40;100.00;100911.66;6183255;23;20005;-86
2022/12/30 05:09:36;;;;;;;27.20;2.70;;;;;;;2.44;100.00;100912.06;6182487;23;20382;-85
2022/12/30 05:12:02;;;;;;;23.27;2.43;;;;;;;2.44;100.00;100906.78;6183273;23;20005;-86
2022/12/30 05:14:27;;;;;;;35.77;2.57;;;;;;;2.46;100.00;100904.75;6182014;23;20033;-85
2022/12/30 05:16:53;;;;;;;24.53;2.20;;;;;;;2.52;100.00;100906.59;6183454;23;20013;-86
2022/12/30 05:19:18;;;;;;;17.63;2.23;;;;;;;2.48;100.00;100904.53;6183076;23;20067;-85
2022/12/30 05:21:46;;;;;;;19.73;2.45;;;;;;;2.47;100.00;100903.72;6181978;23;20005;-86
2022/12/30 05:26:55;;;;;;;17.15;2.40;;;;;;;2.45;100.00;100903.13;6183164;23;20019;-86
2022/12/30 05:29:21;;;;;;;18.80;2.23;;;;;;;2.47;100.00;100906.38;6182685;23;20013;-86
2022/12/30 05:31:46;;;;;;;19.40;2.23;;;;;;;2.52;100.00;100903.13;6181956;23;20291;-86
2022/12/30 05:34:12;;;;;;;18.20;2.30;;;;;;;2.55;100.00;100900.91;6182635;23;20025;-86
2022/12/30 05:36:43;;;;;;;17.52;2.30;;;;;;;2.44;100.00;100887.47;6182376;23;20075;-86
2022/12/30 05:39:12;;;;;;;18.08;2.45;;;;;;;2.53;100.00;100894.16;6155575;23;20449;-86
2022/12/30 05:41:38;;;;;;;16.27;2.03;;;;;;;2.54;100.00;100911.66;6182349;23;20001;-86
2022/12/30 05:44:03;;;;;;;20.58;2.42;;;;;;;2.53;100.00;100905.56;6183237;23;20012;-86
2022/12/30 05:46:29;;;;;;;21.60;2.50;;;;;;;2.49;100.00;100904.34;6182132;23;20076;-86
2022/12/30 05:48:54;;;;;;;20.30;2.47;;;;;;;2.51;100.00;100902.31;6182556;23;21181;-86
2022/12/30 05:51:20;;;;;;;27.33;2.63;;;;;;;2.50;100.00;100898.03;6182487;23;20489;-86
2022/12/30 05:53:45;;;;;;;22.63;2.43;;;;;;;2.48;100.00;100897.44;6181872;23;20013;-87
2022/12/30 05:56:10;;;;;;;19.27;2.43;;;;;;;2.58;100.00;100904.97;6182964;23;20013;-88
2022/12/30 05:58:36;;;;;;;23.15;2.13;;;;;;;2.55;100.00;100897.44;6179808;23;20020;-89
2022/12/30 06:01:02;;;;;;;16.47;2.60;;;;;;;2.53;100.00;100900.28;6180886;23;20005;-89
2022/12/30 06:03:28;;;;;;;19.23;2.55;;;;;;;2.51;100.00;100894.38;6182186;23;20009;-88
2022/12/30 06:06:10;;;;;;;21.83;2.45;;;;;;;2.52;100.00;100903.94;6183754;23;20012;-88
2022/12/30 06:11:14;;;;;;;20.17;2.90;;;;;;;2.44;100.00;100885.63;6188444;22;20021;-88
2022/12/30 06:13:40;;;;;;;21.60;2.30;;;;;;;2.53;100.00;100891.53;6183851;23;20013;-90
2022/12/30 06:16:27;;;;;;;21.23;2.50;;;;;;;2.55;100.00;100887.69;6183446;23;20083;-92
2022/12/30 06:18:55;;;;;;;21.80;2.80;;;;;;;2.56;100.00;100873.41;6185510;23;20088;-93
2022/12/30 06:21:38;;;;;;;15.50;2.15;;;;;;;2.54;100.00;100866.69;6183291;23;20001;-92
2022/12/30 06:24:16;;;;;;;14.65;2.53;;;;;;;2.58;100.00;100867.94;6183996;23;20030;-91
2022/12/30 06:26:41;;;;;;;16.20;2.13;;;;;;;2.65;100.00;100881.94;6183356;23;20040;-94
2022/12/30 06:29:08;;;;;;;21.50;2.60;;;;;;;2.61;100.00;100861.41;6184124;23;20012;-90
2022/12/30 06:31:40;;;;;;;26.15;2.53;;;;;;;2.70;100.00;100862.84;6184233;23;20640;-90
2022/12/30 06:34:06;;;;;;;13.07;2.75;;;;;;;2.67;100.00;100853.47;6183095;23;20001;-90
2022/12/30 06:36:37;;;;;;;19.63;2.47;;;;;;;2.77;100.00;100870.78;6184342;23;20295;-91
2022/12/30 06:39:12;;;;;;;19.58;2.72;;;;;;;2.66;100.00;100859.75;6184803;23;20032;-91
2022/12/30 06:41:37;;;;;;;16.73;2.23;;;;;;;2.76;100.00;100867.28;6187238;23;20013;-91
2022/12/30 06:44:03;;;;;;;24.20;2.60;;;;;;;2.82;100.00;100870.97;6194299;23;20770;-90
2022/12/30 06:47:13;;;;;;;17.43;2.40;;;;;;;2.85;100.00;100855.50;6199166;23;20016;-91
2022/12/30 06:50:39;;;;;;;;;;;;;;;;;;;;;
2022/12/30 06:53:23;;;;;;;17.02;3.55;;;;;;;2.66;100.00;100835.16;6105576;23;20042;-89
2022/12/30 06:59:26;;;;;;;13.33;2.10;;;;;;;2.67;100.00;100805.03;6007421;23;20007;-92
2022/12/30 07:05:55;;;;;;;20.90;3.28;;;;;;;2.73;100.00;100814.81;5977306;24;20027;-92
2022/12/30 07:11:17;;;;;;;18.90;3.55;;;;;;;2.75;100.00;100794.22;6182760;22;20020;-92
2022/12/30 07:13:42;;;;;;;15.30;2.47;;;;;;;2.76;100.00;100781.81;6181431;23;20353;-91
2022/12/30 07:16:29;;;;;;;14.53;2.77;;;;;;;2.78;100.00;100801.75;6183676;23;20009;-91
2022/12/30 07:18:57;;;;;;;15.95;2.53;;;;;;;2.69;100.00;100790.56;6182942;23;20747;-90
2022/12/30 07:21:55;;;;;;;15.63;3.00;;;;;;;2.79;100.00;100792.00;6182594;23;20705;-91
2022/12/30 07:24:46;;;;;;;18.97;2.97;;;;;;;2.85;100.00;100793.78;6158134;23;20085;-91
2022/12/30 07:27:27;;;;;;;20.55;2.95;;;;;;;2.78;100.00;100788.50;6183890;23;20008;-92
2022/12/30 07:30:40;;;;;;;15.60;2.95;;;;;;;2.72;100.00;100765.53;6182862;23;20029;-90
2022/12/30 07:33:14;;;;;;;25.02;2.92;;;;;;;2.70;100.00;100757.78;6093505;23;20011;-91
2022/12/30 07:36:17;;;;;;;20.15;2.80;;;;;;;2.86;100.00;100775.06;6095362;23;20010;-91
2022/12/30 07:38:51;;;;;;;11.77;2.60;;;;;;;2.71;100.00;100742.75;6097718;23;20011;-91
2022/12/30 07:41:46;;;;;;;15.30;2.73;;;;;;;2.95;100.00;100756.31;6097228;23;20006;-91
2022/12/30 07:44:20;;;;;;;14.57;2.70;;;;;;;2.82;100.00;100734.16;6089459;23;20250;-90
2022/12/30 07:46:55;;;;;;;18.08;2.60;;;;;;;2.95;100.00;100737.78;6125731;23;20013;-92
2022/12/30 07:49:22;;;;;;;16.10;2.65;;;;;;;2.95;100.00;100732.47;6190784;23;20008;-91
2022/12/30 07:51:47;;;;;;;14.50;2.60;;;;;;;3.05;100.00;100734.69;6195736;23;20019;-91
2022/12/30 07:54:18;;;;;;;12.60;2.30;;;;;;;2.98;100.00;100718.81;6190466;23;20040;-92
2022/12/30 07:56:53;;;;;;;15.73;2.65;;;;;;;2.96;100.00;100705.81;6185116;23;20064;-91
2022/12/30 07:59:18;;;;;;;14.68;2.53;;;;;;;3.01;100.00;100713.13;6183690;22;20438;-91
2022/12/30 08:01:49;;;;;;;18.57;2.73;;;;;;;3.02;100.00;100697.00;6187132;23;20008;-92
2022/12/30 08:04:15;;;;;;;18.67;2.65;;;;;;;3.14;100.00;100699.81;6183009;23;20016;-92
2022/12/30 08:06:52;;;;;;;13.17;3.10;;;;;;;3.10;100.00;100693.34;6182963;23;20005;-92
2022/12/30 08:12:10;;;;;;;14.50;2.80;;;;;;;3.27;100.00;100693.63;6184930;22;20523;-92
2022/12/30 08:24:04;;;;;;;15.90;2.77;;;;;;;3.54;100.00;100685.53;6184818;22;20163;-93
2022/12/30 09:21:47;;;;;;;6.60;1.80;;;;;;;4.97;100.00;100583.84;6189680;23;20020;-93
2022/12/30 09:24:12;;;;;;;8.50;1.50;;;;;;;5.14;100.00;100604.47;6163004;23;20005;-95
2022/12/30 09:26:38;;;;;;;6.07;1.30;;;;;;;5.26;100.00;100609.81;6165412;23;20557;-93
2022/12/30 09:29:10;;;;;;;6.60;1.20;;;;;;;5.33;100.00;100604.38;6191719;23;20004;-92
2022/12/30 09:31:35;;;;;;;5.50;1.00;;;;;;;5.31;100.00;100594.81;6188336;23;20005;-92
2022/12/30 09:34:04;;;;;;;9.63;1.50;;;;;;;5.43;100.00;100591.38;6186896;23;20016;-92
2022/12/30 09:36:29;;;;;;;6.18;1.40;;;;;;;5.49;100.00;100590.44;6178137;23;20009;-92
2022/12/30 09:45:51;;;;;;;4.60;1.35;;;;;;;5.77;100.00;100596.94;6184674;23;20020;-90
2022/12/30 09:48:30;;;;;;;7.50;1.60;;;;;;;5.83;100.00;100577.41;6182920;23;20009;-91
2022/12/30 09:51:02;;;;;;;3.13;1.00;;;;;;;5.86;100.00;100574.25;6185171;23;20062;-90
2022/12/30 10:03:15;;;;;;;7.13;1.55;;;;;;;6.01;100.00;100554.41;6185277;23;20028;-91
2022/12/30 10:06:10;;;;;;;6.20;1.27;;;;;;;6.03;100.00;100547.81;6183763;23;20012;-92
2022/12/30 10:09:02;;;;;;;4.75;1.58;;;;;;;6.00;100.00;100540.28;6184562;23;20433;-91
2022/12/30 10:11:46;;;;;;;6.95;1.50;;;;;;;6.08;100.00;100535.66;6183531;23;20306;-91
2022/12/30 10:14:50;;;;;;;6.78;1.27;;;;;;;6.10;100.00;100536.25;6183741;23;20005;-91
2022/12/30 10:17:53;;;;;;;5.30;1.77;;;;;;;6.13;100.00;100527.75;6159033;23;20005;-93
2022/12/30 10:20:41;;;;;;;6.75;1.40;;;;;;;6.16;100.00;100514.00;6187067;23;20008;-89
2022/12/30 10:23:20;;;;;;;6.55;1.00;;;;;;;6.20;100.00;100494.69;6192335;23;20001;-92
2022/12/30 10:25:52;;;;;;;5.50;1.60;;;;;;;6.20;100.00;100481.38;6192621;23;20005;-90
2022/12/30 10:28:27;;;;;;;7.00;1.40;;;;;;;6.26;100.00;100470.81;6193752;23;20029;-91
2022/12/30 10:30:52;;;;;;;7.63;1.33;;;;;;;6.24;100.00;100455.09;6165265;23;20011;-89
2022/12/30 10:33:27;;;;;;;8.17;1.33;;;;;;;6.20;100.00;100457.44;6160430;23;20005;-89
2022/12/30 10:36:09;;;;;;;9.48;1.13;;;;;;;6.23;100.00;100445.50;6190161;23;20421;-90
2022/12/30 10:38:35;;;;;;;6.40;1.35;;;;;;;6.22;100.00;100435.91;6196592;23;20016;-90
2022/12/30 10:41:14;;;;;;;4.93;1.07;;;;;;;6.39;100.00;100443.13;6191568;23;20055;-89
2022/12/30 10:44:03;;;;;;;7.43;1.38;;;;;;;6.42;100.00;100442.63;6203369;23;20044;-90
2022/12/30 10:46:40;;;;;;;8.48;1.20;;;;;;;6.43;100.00;100422.97;6179672;23;20013;-89
2022/12/30 10:49:27;;;;;;;7.87;1.40;;;;;;;6.48;100.00;100421.19;6208667;23;20005;-89
2022/12/30 10:51:54;;;;;;;7.72;1.40;;;;;;;6.50;100.00;100405.78;6207887;23;20008;-90
2022/12/30 10:54:22;;;;;;;6.95;1.42;;;;;;;6.56;100.00;100388.03;6208170;23;20005;-91
2022/12/30 10:56:54;;;;;;;9.68;1.75;;;;;;;6.64;100.00;100397.47;6207540;23;20001;-90
2022/12/30 10:59:45;;;;;;;6.03;1.20;;;;;;;6.60;100.00;100386.50;6185027;22;20013;-89
2022/12/30 11:02:31;;;;;;;6.68;1.10;;;;;;;6.64;100.00;100373.53;6176566;23;20008;-91
2022/12/30 11:04:59;;;;;;;11.30;1.67;;;;;;;6.68;100.00;100372.00;6184359;23;20060;-90
2022/12/30 11:07:25;;;;;;;8.88;1.23;;;;;;;6.63;100.00;100347.94;6158640;23;20005;-91
2022/12/30 11:10:11;;;;;;;12.95;3.13;;;;;;;6.66;100.00;100353.56;6157601;23;20005;-93
2022/12/30 11:40:36;;;;;;;9.03;1.40;;;;;;;6.97;100.00;100230.69;6174733;22;20048;-90
2022/12/30 11:43:57;;;;;;;8.00;1.30;;;;;;;7.00;100.00;100243.50;6189712;23;20340;-88
2022/12/30 12:43:44;;;;;;;7.88;1.30;;;;;;;7.38;100.00;100060.56;6184513;23;20071;-92
2022/12/30 12:54:48;;;;;;;10.37;1.20;;;;;;;7.15;100.00;100021.75;6188022;22;20393;-90
2022/12/30 13:04:44;;;;;;;4.50;1.13;;;;;;;7.08;100.00;99971.34;6184672;23;20040;-93
2022/12/30 13:09:55;;;;;;;9.88;1.80;;;;;;;7.12;100.00;99929.78;6192773;22;20028;-89
2022/12/30 13:12:31;;;;;;;13.32;3.22;;;;;;;6.99;100.00;99892.94;6184959;23;20001;-93
2022/12/30 13:21:18;;;;;;;8.80;2.47;;;;;;;7.25;100.00;99877.13;6167626;22;20032;-89
2022/12/30 13:23:58;;;;;;;28.15;10.73;;;;;;;7.12;100.00;99849.88;6185170;22;20021;-92
2022/12/30 13:32:05;;;;;;;4.73;1.50;;;;;;;7.26;100.00;99825.44;6178327;22;20021;-90
2022/12/30 13:35:22;;;;;;;5.70;1.60;;;;;;;7.31;100.00;99825.44;6183411;23;20244;-92
2022/12/30 13:38:44;;;;;;;6.13;1.33;;;;;;;7.29;100.00;99814.25;6183510;23;20029;-90
2022/12/30 13:41:40;;;;;;;4.25;0.82;;;;;;;7.28;100.00;99805.47;6184080;23;20064;-90
2022/12/30 13:47:42;;;;;;;6.82;1.60;;;;;;;7.16;100.00;99793.41;6160954;22;20068;-95
2022/12/30 14:00:13;;;;;;;6.28;1.50;;;;;;;7.14;100.00;99767.03;6184976;22;20021;-92
2022/12/30 14:25:50;;;;;;;8.90;2.17;;;;;;;7.12;100.00;99745.19;6185302;22;20024;-90
2022/12/30 14:34:56;;;;;;;4.72;1.30;;;;;;;7.19;100.00;99745.75;6184439;23;20063;-90
2022/12/30 14:37:30;;;;;;;4.13;1.20;;;;;;;7.11;100.00;99736.41;6166131;23;20005;-92
2022/12/30 14:40:34;;;;;;;4.78;1.23;;;;;;;7.21;100.00;99746.25;6183746;23;20032;-92
2022/12/30 14:48:07;;;;;;;2.07;1.00;;;;;;;7.20;100.00;99743.88;6196674;22;20032;-92
2022/12/30 14:57:43;;;;;;;3.15;1.05;;;;;;;7.38;100.00;99746.06;6184072;22;20110;-91
2022/12/30 15:03:31;;;;;;;4.85;1.25;;;;;;;7.33;100.00;99722.06;6183465;23;20020;-93
2022/12/30 15:09:23;;;;;;;3.45;1.10;;;;;;;7.53;100.00;99747.16;6191749;22;20369;-91
2022/12/30 15:11:59;;;;;;;2.65;1.23;;;;;;;7.46;100.00;99735.97;6182447;23;20008;-94
2022/12/30 15:14:53;;;;;;;2.40;1.00;;;;;;;7.54;100.00;99754.91;6184593;23;20008;-93
2022/12/30 15:35:32;;;;;;;1.23;0.93;;;;;;;7.69;100.00;99761.31;6183325;23;20027;-91
2022/12/30 15:38:37;;;;;;;2.28;1.17;;;;;;;7.72;100.00;99763.47;6184014;23;20016;-92
2022/12/30 16:01:02;;;;;;;3.60;1.73;;;;;;;7.85;100.00;99781.59;6186748;23;20032;-94
2022/12/30 16:58:42;;;;;;;4.95;2.55;;;;;;;8.72;100.00;99797.91;6197755;23;20039;-92
2022/12/30 17:13:04;;;;;;;3.03;2.73;;;;;;;9.03;100.00;99841.38;6188699;22;20078;-92
2022/12/30 17:57:34;;;;;;;2.83;2.45;;;;;;;9.45;100.00;99895.50;6178477;22;20442;-96
2022/12/30 18:12:58;;;;;;;3.70;2.80;;;;;;;9.67;100.00;99942.50;6190206;22;20274;-93
2022/12/30 18:17:48;;;;;;;3.90;2.90;;;;;;;9.83;100.00;99981.50;6174605;22;20016;-93
2022/12/30 18:21:07;;;;;;;;;;;;;;;;;;;;;
2022/12/30 18:24:08;;;;;;;3.70;3.13;;;;;;;9.76;100.00;99972.97;6062118;23;20066;-94
2022/12/30 18:31:28;;;;;;;;;;;;;;;;;;;;;
2022/12/30 18:43:48;;;;;;;3.73;2.20;;;;;;;9.95;100.00;99991.09;6187429;23;20024;-91
2022/12/30 18:49:45;;;;;;;3.28;2.70;;;;;;;10.08;100.00;100008.44;6190307;22;20472;-92
2022/12/30 18:52:12;;;;;;;2.17;1.98;;;;;;;10.05;100.00;99998.28;6157361;23;20008;-93
2022/12/30 18:55:08;;;;;;;2.75;1.80;;;;;;;10.21;100.00;100023.13;6203111;23;20005;-93
2022/12/30 18:58:12;;;;;;;4.03;2.03;;;;;;;10.26;100.00;100018.53;6181915;22;19997;-94
2022/12/30 19:04:51;;;;;;;2.47;1.50;;;;;;;10.25;100.00;100008.06;6210591;23;20065;-91
2022/12/30 19:10:20;;;;;;;2.58;1.38;;;;;;;10.45;100.00;100034.78;6184286;22;20020;-94
2022/12/30 19:12:48;;;;;;;2.50;1.50;;;;;;;10.33;100.00;100014.72;6203285;23;20036;-94
2022/12/30 19:20:45;;;;;;;2.50;1.27;;;;;;;10.48;100.00;100038.81;6174259;22;20021;-93
2022/12/30 19:23:23;;;;;;;4.90;2.22;;;;;;;10.35;100.00;100026.78;6184423;23;20058;-94
2022/12/30 19:29:14;;;;;;;2.87;1.60;;;;;;;10.44;100.00;100043.91;6163569;23;20265;-94
2022/12/30 19:32:23;;;;;;;4.78;1.58;;;;;;;10.49;100.00;100055.66;6177617;23;20005;-93
2022/12/30 19:34:51;;;;;;;3.90;1.50;;;;;;;10.38;100.00;100053.06;6179469;23;20111;-94
2022/12/30 19:37:26;;;;;;;3.60;1.67;;;;;;;10.38;100.00;100045.00;6178234;23;20025;-94
2022/12/30 19:39:51;;;;;;;3.22;1.58;;;;;;;10.56;100.00;100078.41;6179104;23;20007;-92
2022/12/30 19:42:56;;;;;;;3.57;1.43;;;;;;;10.55;100.00;100076.78;6173183;23;20002;-92
2022/12/30 19:48:57;;;;;;;4.18;1.90;;;;;;;10.62;100.00;100087.19;6164821;23;20087;-90
2022/12/30 19:51:24;;;;;;;2.10;1.70;;;;;;;10.64;100.00;100093.09;6163804;23;20021;-91
2022/12/30 19:58:34;;;;;;;5.15;1.70;;;;;;;10.63;100.00;100096.84;6092851;23;20092;-92
2022/12/30 20:04:34;;;;;;;3.00;1.48;;;;;;;10.73;100.00;100120.09;6064959;23;20090;-91
2022/12/30 20:07:05;;;;;;;5.45;1.70;;;;;;;10.70;100.00;100124.16;6064241;23;20007;-92
2022/12/30 20:09:34;;;;;;;5.20;1.73;;;;;;;10.68;100.00;100118.25;6129321;23;20016;-92
2022/12/30 20:15:42;;;;;;;3.37;1.37;;;;;;;10.87;100.00;100139.84;6062042;22;20251;-91
2022/12/30 20:19:15;;;;;;;;;;;;;;;;;;;;;
2022/12/30 20:21:36;;;;;;;;;;;;;;;;;;;;;
2022/12/30 20:27:30;;;;;;;2.30;1.30;;;;;;;10.82;100.00;100150.63;6121420;23;20036;-92
2022/12/30 20:30:52;;;;;;;3.85;1.50;;;;;;;10.96;100.00;100166.88;6137190;23;20013;-92
2022/12/30 20:33:26;;;;;;;4.05;1.75;;;;;;;10.85;100.00;100141.22;6155751;23;20046;-92
2022/12/30 20:36:39;;;;;;;5.70;1.87;;;;;;;11.00;100.00;100149.16;6164734;23;20009;-91
2022/12/30 20:39:23;;;;;;;2.93;1.27;;;;;;;10.95;100.00;100133.13;6098290;23;20250;-93
2022/12/30 20:42:26;;;;;;;2.28;1.33;;;;;;;11.03;100.00;100140.56;6160863;23;20017;-92
2022/12/30 20:45:33;;;;;;;3.08;1.23;;;;;;;11.08;100.00;100142.41;6161722;23;20430;-92
2022/12/30 20:51:37;;;;;;;4.68;1.20;;;;;;;10.99;100.00;100131.47;6092347;23;20021;-88
2022/12/30 20:54:35;;;;;;;1.98;1.20;;;;;;;11.04;100.00;100147.53;6091202;23;20006;-89
2022/12/30 20:57:01;;;;;;;3.40;1.30;;;;;;;11.09;100.00;100148.59;6099196;22;20013;-86
2022/12/30 20:59:26;;;;;;;2.07;1.03;;;;;;;11.16;100.00;100160.63;6182387;23;20241;-89
2022/12/30 21:01:52;;;;;;;6.93;1.43;;;;;;;11.14;100.00;100157.41;6182414;23;20414;-90